Rankin, Illinois
Current Conditions -  °F | °C
As of 9:30 AM on Monday 22 Dec 2014 (Local Time) from KTIP Reporting Station
Light Rain Light Rain  
Wind Chill: 28°   Ceiling: 5000
Heat Index: 36°   Visibility: 5mi
Dew Point: 34°   Wind: 12mph
Humidity: 91%   Direction: 120°ESE
Pressure: 29.85"   Gusts: NA
Location:  40.47°N, 87.9°W
Report Text: KTIP 221530Z AUTO 12010KT 5SM -RA SCT019 SCT047 OVC050 02/01 A2985 RMK AO2 T00240011
Loading
Personal Weather Stations






























Interactive Weather Map New forecast layout! Learn more

10-Day Weather Forecast

Advertisements
Track Severe Weather on mobile